sensor_id;sensor_type;location;lat;lon;timestamp;pressure;altitude;pressure_sealevel;temperature;humidity
73455;BME280;61690;51.824;6.306;2022-12-18T00:01:57;102754.34;;;14.94;44.37
73455;BME280;61690;51.824;6.306;2022-12-18T00:04:25;102756.97;;;14.94;44.31
73455;BME280;61690;51.824;6.306;2022-12-18T00:06:50;102757.94;;;14.89;44.29
73455;BME280;61690;51.824;6.306;2022-12-18T00:09:16;102760.56;;;14.89;44.30
73455;BME280;61690;51.824;6.306;2022-12-18T00:11:41;102761.47;;;14.88;44.53
73455;BME280;61690;51.824;6.306;2022-12-18T00:14:08;102754.56;;;14.84;44.34
73455;BME280;61690;51.824;6.306;2022-12-18T00:16:34;102758.03;;;14.85;44.42
73455;BME280;61690;51.824;6.306;2022-12-18T00:19:02;102752.00;;;14.81;44.44
73455;BME280;61690;51.824;6.306;2022-12-18T00:21:29;102750.31;;;14.79;44.47
73455;BME280;61690;51.824;6.306;2022-12-18T00:23:54;102745.06;;;14.79;44.51
73455;BME280;61690;51.824;6.306;2022-12-18T00:26:23;102744.19;;;14.78;44.59
73455;BME280;61690;51.824;6.306;2022-12-18T00:28:50;102743.34;;;14.76;44.38
73455;BME280;61690;51.824;6.306;2022-12-18T00:31:18;102753.91;;;14.73;44.42
73455;BME280;61690;51.824;6.306;2022-12-18T00:33:44;102746.09;;;14.70;44.55
73455;BME280;61690;51.824;6.306;2022-12-18T00:36:18;102738.28;;;14.68;44.42
73455;BME280;61690;51.824;6.306;2022-12-18T00:38:45;102746.09;;;14.70;44.50
73455;BME280;61690;51.824;6.306;2022-12-18T00:41:11;102743.50;;;14.68;44.46
73455;BME280;61690;51.824;6.306;2022-12-18T00:43:38;102746.22;;;14.64;44.52
73455;BME280;61690;51.824;6.306;2022-12-18T00:46:04;102748.00;;;14.63;44.65
73455;BME280;61690;51.824;6.306;2022-12-18T00:48:29;102752.34;;;14.63;44.58
73455;BME280;61690;51.824;6.306;2022-12-18T00:51:17;102753.25;;;14.62;44.55
73455;BME280;61690;51.824;6.306;2022-12-18T00:53:49;102748.00;;;14.62;44.37
73455;BME280;61690;51.824;6.306;2022-12-18T00:56:14;102743.69;;;14.59;44.47
73455;BME280;61690;51.824;6.306;2022-12-18T00:58:39;102739.38;;;14.57;44.46
73455;BME280;61690;51.824;6.306;2022-12-18T01:01:05;102741.06;;;14.59;44.51
73455;BME280;61690;51.824;6.306;2022-12-18T01:03:30;102740.28;;;14.54;44.45
73455;BME280;61690;51.824;6.306;2022-12-18T01:05:56;102744.66;;;14.54;44.58
73455;BME280;61690;51.824;6.306;2022-12-18T01:08:21;102742.94;;;14.51;44.62
73455;BME280;61690;51.824;6.306;2022-12-18T01:10:47;102746.47;;;14.50;44.82
73455;BME280;61690;51.824;6.306;2022-12-18T01:13:12;102744.75;;;14.47;44.58
73455;BME280;61690;51.824;6.306;2022-12-18T01:15:37;102743.88;;;14.48;44.59
73455;BME280;61690;51.824;6.306;2022-12-18T01:18:06;102736.97;;;14.44;44.66
73455;BME280;61690;51.824;6.306;2022-12-18T01:20:32;102745.69;;;14.43;44.46
73455;BME280;61690;51.824;6.306;2022-12-18T01:22:57;102745.78;;;14.40;44.65
73455;BME280;61690;51.824;6.306;2022-12-18T01:25:22;102743.16;;;14.40;44.66
73455;BME280;61690;51.824;6.306;2022-12-18T01:27:48;102737.09;;;14.38;44.63
73455;BME280;61690;51.824;6.306;2022-12-18T01:30:13;102727.50;;;14.37;44.81
73455;BME280;61690;51.824;6.306;2022-12-18T01:32:38;102718.81;;;14.35;44.61
73455;BME280;61690;51.824;6.306;2022-12-18T01:35:04;102725.81;;;14.33;44.75
73455;BME280;61690;51.824;6.306;2022-12-18T01:37:30;102728.47;;;14.30;44.75
73455;BME280;61690;51.824;6.306;2022-12-18T01:39:56;102733.69;;;14.33;44.59
73455;BME280;61690;51.824;6.306;2022-12-18T01:42:21;102739.88;;;14.29;44.76
73455;BME280;61690;51.824;6.306;2022-12-18T01:44:57;102734.63;;;14.29;44.68
73455;BME280;61690;51.824;6.306;2022-12-18T01:50:10;102737.31;;;14.24;44.72
73455;BME280;61690;51.824;6.306;2022-12-18T01:52:37;102735.63;;;14.22;44.90
73455;BME280;61690;51.824;6.306;2022-12-18T01:55:05;102732.06;;;14.24;44.85
73455;BME280;61690;51.824;6.306;2022-12-18T01:57:44;102743.47;;;14.22;44.87
73455;BME280;61690;51.824;6.306;2022-12-18T02:00:14;102745.25;;;14.20;44.68
73455;BME280;61690;51.824;6.306;2022-12-18T02:02:41;102737.41;;;14.20;44.78
73455;BME280;61690;51.824;6.306;2022-12-18T02:05:07;102733.94;;;14.19;44.65
73455;BME280;61690;51.824;6.306;2022-12-18T02:08:10;102735.72;;;14.16;44.79
73455;BME280;61690;51.824;6.306;2022-12-18T02:15:51;102732.28;;;14.12;44.73
73455;BME280;61690;51.824;6.306;2022-12-18T02:18:24;102741.03;;;14.11;44.84
73455;BME280;61690;51.824;6.306;2022-12-18T02:23:52;102734.94;;;14.10;44.50
73455;BME280;61690;51.824;6.306;2022-12-18T02:26:25;102725.38;;;14.09;44.64
73455;BME280;61690;51.824;6.306;2022-12-18T02:29:14;102722.75;;;14.09;44.71
73455;BME280;61690;51.824;6.306;2022-12-18T02:31:46;102732.34;;;14.09;44.59
73455;BME280;61690;51.824;6.306;2022-12-18T02:34:14;102730.66;;;14.06;44.63
73455;BME280;61690;51.824;6.306;2022-12-18T02:36:42;102725.41;;;14.08;44.73
73455;BME280;61690;51.824;6.306;2022-12-18T02:39:10;102729.84;;;14.03;44.73
73455;BME280;61690;51.824;6.306;2022-12-18T02:41:37;102717.59;;;14.03;44.64
73455;BME280;61690;51.824;6.306;2022-12-18T02:44:08;102728.03;;;14.06;44.62
73455;BME280;61690;51.824;6.306;2022-12-18T02:46:40;102738.59;;;14.02;44.65
73455;BME280;61690;51.824;6.306;2022-12-18T02:54:22;102733.38;;;14.00;44.67
73455;BME280;61690;51.824;6.306;2022-12-18T02:56:53;102725.53;;;13.99;44.72
73455;BME280;61690;51.824;6.306;2022-12-18T02:59:33;102713.31;;;13.99;44.56
73455;BME280;61690;51.824;6.306;2022-12-18T03:04:53;102717.72;;;13.97;44.67
73455;BME280;61690;51.824;6.306;2022-12-18T03:07:28;102708.16;;;13.96;44.61
73455;BME280;61690;51.824;6.306;2022-12-18T03:09:58;102712.56;;;13.94;44.64
73455;BME280;61690;51.824;6.306;2022-12-18T03:12:32;102709.03;;;13.95;44.62
73455;BME280;61690;51.824;6.306;2022-12-18T03:15:37;102715.19;;;13.92;44.77
73455;BME280;61690;51.824;6.306;2022-12-18T03:18:32;102718.66;;;13.93;44.64
73455;BME280;61690;51.824;6.306;2022-12-18T03:21:04;102715.22;;;13.89;44.67
73455;BME280;61690;51.824;6.306;2022-12-18T03:23:35;102725.69;;;13.89;44.70
73455;BME280;61690;51.824;6.306;2022-12-18T03:26:06;102723.09;;;13.88;44.64
73455;BME280;61690;51.824;6.306;2022-12-18T03:28:35;102722.25;;;13.87;44.57
73455;BME280;61690;51.824;6.306;2022-12-18T03:31:03;102712.69;;;13.85;44.68
73455;BME280;61690;51.824;6.306;2022-12-18T03:33:36;102718.78;;;13.85;44.61
73455;BME280;61690;51.824;6.306;2022-12-18T03:36:02;102709.19;;;13.84;44.71
73455;BME280;61690;51.824;6.306;2022-12-18T03:38:28;102702.28;;;13.82;44.74
73455;BME280;61690;51.824;6.306;2022-12-18T03:40:59;102695.38;;;13.78;44.81
73455;BME280;61690;51.824;6.306;2022-12-18T03:43:51;102707.59;;;13.77;44.82
73455;BME280;61690;51.824;6.306;2022-12-18T03:49:11;102698.00;;;13.78;44.53
73455;BME280;61690;51.824;6.306;2022-12-18T03:51:48;102695.41;;;13.75;44.68
73455;BME280;61690;51.824;6.306;2022-12-18T03:54:19;102690.19;;;13.75;44.67
73455;BME280;61690;51.824;6.306;2022-12-18T03:56:55;102685.88;;;13.72;44.89
73455;BME280;61690;51.824;6.306;2022-12-18T03:59:22;102685.88;;;13.70;44.82
73455;BME280;61690;51.824;6.306;2022-12-18T04:01:51;102679.81;;;13.68;44.83
73455;BME280;61690;51.824;6.306;2022-12-18T04:04:18;102686.84;;;13.66;44.83
73455;BME280;61690;51.824;6.306;2022-12-18T04:06:45;102684.19;;;13.68;44.73
73455;BME280;61690;51.824;6.306;2022-12-18T04:09:13;102686.84;;;13.66;44.86
73455;BME280;61690;51.824;6.306;2022-12-18T04:11:42;102685.13;;;13.65;44.59
73455;BME280;61690;51.824;6.306;2022-12-18T04:14:10;102683.41;;;13.61;44.74
73455;BME280;61690;51.824;6.306;2022-12-18T04:16:36;102679.94;;;13.62;44.74
73455;BME280;61690;51.824;6.306;2022-12-18T04:19:01;102684.31;;;13.60;44.64
73455;BME280;61690;51.824;6.306;2022-12-18T04:21:26;102684.31;;;13.62;44.70
73455;BME280;61690;51.824;6.306;2022-12-18T04:23:52;102679.13;;;13.57;44.80
73455;BME280;61690;51.824;6.306;2022-12-18T04:26:17;102679.97;;;13.59;44.72
73455;BME280;61690;51.824;6.306;2022-12-18T04:28:42;102681.81;;;13.54;44.63
73455;BME280;61690;51.824;6.306;2022-12-18T04:31:08;102678.28;;;13.57;44.68
73455;BME280;61690;51.824;6.306;2022-12-18T04:33:33;102680.03;;;13.55;44.62
73455;BME280;61690;51.824;6.306;2022-12-18T04:35:58;102676.59;;;13.52;44.73
73455;BME280;61690;51.824;6.306;2022-12-18T04:38:24;102676.63;;;13.51;44.71
73455;BME280;61690;51.824;6.306;2022-12-18T04:40:49;102681.00;;;13.49;44.90
73455;BME280;61690;51.824;6.306;2022-12-18T04:43:14;102685.41;;;13.47;44.80
73455;BME280;61690;51.824;6.306;2022-12-18T04:45:40;102667.09;;;13.47;44.67
73455;BME280;61690;51.824;6.306;2022-12-18T04:48:05;102674.97;;;13.44;44.98
73455;BME280;61690;51.824;6.306;2022-12-18T04:50:31;102668.88;;;13.43;44.64
73455;BME280;61690;51.824;6.306;2022-12-18T04:52:56;102655.81;;;13.45;44.74
73455;BME280;61690;51.824;6.306;2022-12-18T04:55:22;102654.06;;;13.44;44.65
73455;BME280;61690;51.824;6.306;2022-12-18T04:57:50;102653.25;;;13.40;44.82
73455;BME280;61690;51.824;6.306;2022-12-18T05:00:16;102659.34;;;13.41;44.77
73455;BME280;61690;51.824;6.306;2022-12-18T05:02:41;102662.84;;;13.38;44.84
73455;BME280;61690;51.824;6.306;2022-12-18T05:05:07;102670.69;;;13.40;44.68
73455;BME280;61690;51.824;6.306;2022-12-18T05:07:36;102671.63;;;13.36;44.85
73455;BME280;61690;51.824;6.306;2022-12-18T05:10:02;102665.53;;;13.35;45.23
73455;BME280;61690;51.824;6.306;2022-12-18T05:12:27;102671.63;;;13.36;44.83
73455;BME280;61690;51.824;6.306;2022-12-18T05:14:52;102669.03;;;13.32;44.69
73455;BME280;61690;51.824;6.306;2022-12-18T05:17:18;102669.09;;;13.31;44.71
73455;BME280;61690;51.824;6.306;2022-12-18T05:19:43;102672.56;;;13.30;45.01
73455;BME280;61690;51.824;6.306;2022-12-18T05:22:09;102671.69;;;13.29;44.97
73455;BME280;61690;51.824;6.306;2022-12-18T05:24:34;102683.91;;;13.27;44.79
73455;BME280;61690;51.824;6.306;2022-12-18T05:27:00;102679.56;;;13.26;44.62
73455;BME280;61690;51.824;6.306;2022-12-18T05:29:25;102689.16;;;13.26;44.85
73455;BME280;61690;51.824;6.306;2022-12-18T05:31:51;102694.47;;;13.21;44.85
73455;BME280;61690;51.824;6.306;2022-12-18T05:34:16;102699.63;;;13.24;44.73
73455;BME280;61690;51.824;6.306;2022-12-18T05:36:42;102704.84;;;13.24;44.67
73455;BME280;61690;51.824;6.306;2022-12-18T05:39:07;102704.00;;;13.22;44.81
73455;BME280;61690;51.824;6.306;2022-12-18T05:41:32;102711.00;;;13.20;44.81
73455;BME280;61690;51.824;6.306;2022-12-18T05:43:58;102706.66;;;13.19;44.80
73455;BME280;61690;51.824;6.306;2022-12-18T05:46:23;102712.78;;;13.17;44.72
73455;BME280;61690;51.824;6.306;2022-12-18T05:48:49;102717.19;;;13.13;44.72
73455;BME280;61690;51.824;6.306;2022-12-18T05:51:17;102725.00;;;13.16;44.94
73455;BME280;61690;51.824;6.306;2022-12-18T05:53:43;102728.47;;;13.15;44.73
73455;BME280;61690;51.824;6.306;2022-12-18T05:56:12;102729.38;;;13.16;45.00
73455;BME280;61690;51.824;6.306;2022-12-18T05:58:38;102726.69;;;13.20;44.83
73455;BME280;61690;51.824;6.306;2022-12-18T06:01:13;102722.16;;;13.34;44.42
73455;BME280;61690;51.824;6.306;2022-12-18T06:03:40;102708.03;;;13.48;44.15
73455;BME280;61690;51.824;6.306;2022-12-18T06:06:16;102696.44;;;13.66;43.78
73455;BME280;61690;51.824;6.306;2022-12-18T06:08:41;102690.06;;;13.82;43.39
73455;BME280;61690;51.824;6.306;2022-12-18T06:11:07;102694.19;;;13.96;43.21
73455;BME280;61690;51.824;6.306;2022-12-18T06:13:32;102700.09;;;14.08;42.83
73455;BME280;61690;51.824;6.306;2022-12-18T06:15:57;102695.50;;;14.21;42.73
73455;BME280;61690;51.824;6.306;2022-12-18T06:18:22;102685.75;;;14.28;42.55
73455;BME280;61690;51.824;6.306;2022-12-18T06:20:55;102680.47;;;14.31;42.57
73455;BME280;61690;51.824;6.306;2022-12-18T06:23:21;102687.38;;;14.35;42.51
73455;BME280;61690;51.824;6.306;2022-12-18T06:25:46;102680.47;;;14.31;42.56
73455;BME280;61690;51.824;6.306;2022-12-18T06:28:11;102670.75;;;14.38;42.35
73455;BME280;61690;51.824;6.306;2022-12-18T06:30:37;102681.06;;;14.45;42.27
73455;BME280;61690;51.824;6.306;2022-12-18T06:33:02;102676.50;;;14.55;42.41
73455;BME280;61690;51.824;6.306;2022-12-18T06:35:27;102670.22;;;14.67;41.96
73455;BME280;61690;51.824;6.306;2022-12-18T06:37:53;102666.59;;;14.73;41.83
73455;BME280;61690;51.824;6.306;2022-12-18T06:40:18;102660.31;;;14.81;41.71
73455;BME280;61690;51.824;6.306;2022-12-18T06:42:43;102653.22;;;14.86;41.68
73455;BME280;61690;51.824;6.306;2022-12-18T06:45:09;102658.31;;;14.93;41.44
73455;BME280;61690;51.824;6.306;2022-12-18T06:47:34;102652.91;;;15.00;41.64
73455;BME280;61690;51.824;6.306;2022-12-18T06:50:00;102651.06;;;15.05;41.23
73455;BME280;61690;51.824;6.306;2022-12-18T06:52:25;102644.84;;;15.09;41.20
73455;BME280;61690;51.824;6.306;2022-12-18T06:54:50;102643.84;;;15.15;41.48
73455;BME280;61690;51.824;6.306;2022-12-18T06:57:16;102641.06;;;15.21;41.09
73455;BME280;61690;51.824;6.306;2022-12-18T06:59:41;102650.66;;;15.22;41.07
73455;BME280;61690;51.824;6.306;2022-12-18T07:02:09;102643.53;;;15.27;41.09
73455;BME280;61690;51.824;6.306;2022-12-18T07:04:35;102640.81;;;15.32;40.88
73455;BME280;61690;51.824;6.306;2022-12-18T07:07:00;102639.88;;;15.35;40.94
73455;BME280;61690;51.824;6.306;2022-12-18T07:09:26;102646.75;;;15.40;40.81
73455;BME280;61690;51.824;6.306;2022-12-18T07:11:51;102635.25;;;15.46;40.81
73455;BME280;61690;51.824;6.306;2022-12-18T07:14:16;102628.19;;;15.49;40.77
73455;BME280;61690;51.824;6.306;2022-12-18T07:16:42;102643.75;;;15.56;40.71
73455;BME280;61690;51.824;6.306;2022-12-18T07:19:07;102633.22;;;15.57;40.69
73455;BME280;61690;51.824;6.306;2022-12-18T07:21:32;102633.88;;;15.65;40.33
73455;BME280;61690;51.824;6.306;2022-12-18T07:23:58;102624.25;;;15.66;40.21
73455;BME280;61690;51.824;6.306;2022-12-18T07:26:23;102630.25;;;15.71;40.38
73455;BME280;61690;51.824;6.306;2022-12-18T07:28:49;102631.03;;;15.76;40.34
73455;BME280;61690;51.824;6.306;2022-12-18T07:31:18;102632.63;;;15.82;40.15
73455;BME280;61690;51.824;6.306;2022-12-18T07:33:44;102641.41;;;15.81;40.25
73455;BME280;61690;51.824;6.306;2022-12-18T07:36:10;102650.09;;;15.83;40.33
73455;BME280;61690;51.824;6.306;2022-12-18T07:38:36;102654.25;;;15.92;40.28
73455;BME280;61690;51.824;6.306;2022-12-18T07:41:03;102646.25;;;15.96;40.00
73455;BME280;61690;51.824;6.306;2022-12-18T07:43:29;102640.09;;;15.97;40.05
73455;BME280;61690;51.824;6.306;2022-12-18T07:45:54;102629.59;;;15.97;39.46
73455;BME280;61690;51.824;6.306;2022-12-18T07:48:19;102626.97;;;15.97;39.89
73455;BME280;61690;51.824;6.306;2022-12-18T07:50:45;102626.06;;;15.98;40.14
73455;BME280;61690;51.824;6.306;2022-12-18T07:53:10;102628.75;;;15.95;40.37
73455;BME280;61690;51.824;6.306;2022-12-18T07:55:36;102622.69;;;15.93;40.29
73455;BME280;61690;51.824;6.306;2022-12-18T07:58:03;102615.63;;;15.95;40.46
73455;BME280;61690;51.824;6.306;2022-12-18T08:00:29;102601.56;;;15.99;40.18
73455;BME280;61690;51.824;6.306;2022-12-18T08:02:54;102587.50;;;16.00;40.13
73455;BME280;61690;51.824;6.306;2022-12-18T08:05:20;102588.44;;;15.99;40.41
73455;BME280;61690;51.824;6.306;2022-12-18T08:07:46;102593.75;;;15.96;40.36
73455;BME280;61690;51.824;6.306;2022-12-18T08:10:11;102593.00;;;15.91;40.51
73455;BME280;61690;51.824;6.306;2022-12-18T08:12:36;102587.03;;;15.86;40.42
73455;BME280;61690;51.824;6.306;2022-12-18T08:15:02;102595.06;;;15.80;40.75
73455;BME280;61690;51.824;6.306;2022-12-18T08:17:27;102595.16;;;15.77;40.87
73455;BME280;61690;51.824;6.306;2022-12-18T08:19:52;102577.81;;;15.69;40.89
73455;BME280;61690;51.824;6.306;2022-12-18T08:22:17;102578.81;;;15.65;41.17
73455;BME280;61690;51.824;6.306;2022-12-18T08:24:43;102579.84;;;15.58;41.00
73455;BME280;61690;51.824;6.306;2022-12-18T08:27:08;102581.72;;;15.53;41.15
73455;BME280;61690;51.824;6.306;2022-12-18T08:29:34;102575.78;;;15.46;41.24
73455;BME280;61690;51.824;6.306;2022-12-18T08:31:59;102584.59;;;15.44;41.33
73455;BME280;61690;51.824;6.306;2022-12-18T08:34:24;102584.81;;;15.36;41.45
73455;BME280;61690;51.824;6.306;2022-12-18T08:36:49;102578.66;;;15.36;41.32
73455;BME280;61690;51.824;6.306;2022-12-18T08:39:15;102585.53;;;15.41;41.41
73455;BME280;61690;51.824;6.306;2022-12-18T08:41:40;102586.94;;;15.55;41.01
73455;BME280;61690;51.824;6.306;2022-12-18T08:44:07;102573.53;;;15.67;40.97
73455;BME280;61690;51.824;6.306;2022-12-18T08:46:50;102582.03;;;15.77;40.63
73455;BME280;61690;51.824;6.306;2022-12-18T08:49:16;102569.56;;;15.85;40.56
73455;BME280;61690;51.824;6.306;2022-12-18T08:51:41;102570.31;;;15.90;40.40
73455;BME280;61690;51.824;6.306;2022-12-18T08:54:06;102577.25;;;15.91;40.65
73455;BME280;61690;51.824;6.306;2022-12-18T08:56:32;102574.63;;;15.91;40.48
73455;BME280;61690;51.824;6.306;2022-12-18T08:58:58;102580.84;;;15.88;40.73
73455;BME280;61690;51.824;6.306;2022-12-18T09:01:24;102581.84;;;15.84;40.62
73455;BME280;61690;51.824;6.306;2022-12-18T09:03:50;102587.25;;;15.78;40.62
73455;BME280;61690;51.824;6.306;2022-12-18T09:06:17;102600.44;;;15.75;41.00
73455;BME280;61690;51.824;6.306;2022-12-18T09:08:46;102593.53;;;15.71;40.77
73455;BME280;61690;51.824;6.306;2022-12-18T09:11:25;102590.19;;;15.64;41.07
73455;BME280;61690;51.824;6.306;2022-12-18T09:13:52;102596.41;;;15.60;41.05
73455;BME280;61690;51.824;6.306;2022-12-18T09:16:17;102585.22;;;15.54;41.29
73455;BME280;61690;51.824;6.306;2022-12-18T09:18:43;102587.84;;;15.54;41.10
73455;BME280;61690;51.824;6.306;2022-12-18T09:21:10;102586.31;;;15.45;41.38
73455;BME280;61690;51.824;6.306;2022-12-18T09:23:36;102587.22;;;15.44;41.34
73455;BME280;61690;51.824;6.306;2022-12-18T09:26:01;102569.00;;;15.38;41.53
73455;BME280;61690;51.824;6.306;2022-12-18T09:28:27;102577.84;;;15.34;41.48
73455;BME280;61690;51.824;6.306;2022-12-18T09:30:52;102579.75;;;15.28;41.62
73455;BME280;61690;51.824;6.306;2022-12-18T09:33:17;102573.69;;;15.26;41.85
73455;BME280;61690;51.824;6.306;2022-12-18T09:35:44;102564.19;;;15.21;41.84
73455;BME280;61690;51.824;6.306;2022-12-18T09:38:16;102558.97;;;15.21;42.00
73455;BME280;61690;51.824;6.306;2022-12-18T09:40:45;102564.31;;;15.15;41.95
73455;BME280;61690;51.824;6.306;2022-12-18T09:46:04;102553.97;;;15.10;42.27
73455;BME280;61690;51.824;6.306;2022-12-18T09:48:34;102562.69;;;15.10;41.99
73455;BME280;61690;51.824;6.306;2022-12-18T09:51:22;102562.78;;;15.07;42.65
73455;BME280;61690;51.824;6.306;2022-12-18T09:53:59;102561.97;;;15.04;42.80
73455;BME280;61690;51.824;6.306;2022-12-18T09:56:28;102561.00;;;15.08;42.68
73455;BME280;61690;51.824;6.306;2022-12-18T09:58:58;102557.19;;;15.21;42.46
73455;BME280;61690;51.824;6.306;2022-12-18T10:01:25;102551.50;;;15.40;42.09
73455;BME280;61690;51.824;6.306;2022-12-18T10:03:52;102555.44;;;15.56;41.91
73455;BME280;61690;51.824;6.306;2022-12-18T10:06:25;102555.97;;;15.69;41.32
73455;BME280;61690;51.824;6.306;2022-12-18T10:11:46;102536.31;;;15.85;41.48
73455;BME280;61690;51.824;6.306;2022-12-18T10:14:17;102521.25;;;15.92;41.57
73455;BME280;61690;51.824;6.306;2022-12-18T10:17:11;102512.38;;;15.98;41.46
73455;BME280;61690;51.824;6.306;2022-12-18T10:23:21;102510.31;;;16.07;41.16
73455;BME280;61690;51.824;6.306;2022-12-18T10:26:00;102506.72;;;16.12;40.98
73455;BME280;61690;51.824;6.306;2022-12-18T10:28:27;102509.94;;;16.20;41.41
73455;BME280;61690;51.824;6.306;2022-12-18T10:30:54;102517.84;;;16.20;41.09
73455;BME280;61690;51.824;6.306;2022-12-18T10:33:22;102515.97;;;16.23;41.12
73455;BME280;61690;51.824;6.306;2022-12-18T10:35:50;102511.72;;;16.19;41.11
73455;BME280;61690;51.824;6.306;2022-12-18T10:44:11;102485.66;;;16.13;41.46
73455;BME280;61690;51.824;6.306;2022-12-18T10:46:37;102476.09;;;16.11;41.26
73455;BME280;61690;51.824;6.306;2022-12-18T10:49:03;102470.94;;;16.07;41.65
73455;BME280;61690;51.824;6.306;2022-12-18T10:51:34;102470.22;;;16.02;41.47
73455;BME280;61690;51.824;6.306;2022-12-18T10:54:14;102467.75;;;15.98;41.77
73455;BME280;61690;51.824;6.306;2022-12-18T10:56:40;102468.78;;;15.92;41.81
73455;BME280;61690;51.824;6.306;2022-12-18T10:59:08;102470.63;;;15.88;41.91
73455;BME280;61690;51.824;6.306;2022-12-18T11:01:51;102461.13;;;15.84;41.96
73455;BME280;61690;51.824;6.306;2022-12-18T11:04:36;102462.06;;;15.82;41.92
73455;BME280;61690;51.824;6.306;2022-12-18T11:07:07;102455.09;;;15.81;42.03
73455;BME280;61690;51.824;6.306;2022-12-18T11:09:35;102454.25;;;15.80;41.79
73455;BME280;61690;51.824;6.306;2022-12-18T11:12:03;102451.56;;;15.82;41.81
73455;BME280;61690;51.824;6.306;2022-12-18T11:14:35;102444.25;;;15.93;41.76
73455;BME280;61690;51.824;6.306;2022-12-18T11:17:21;102450.03;;;16.04;41.42
73455;BME280;61690;51.824;6.306;2022-12-18T11:20:25;102445.31;;;16.16;41.14
73455;BME280;61690;51.824;6.306;2022-12-18T11:23:00;102431.97;;;16.23;40.89
73455;BME280;61690;51.824;6.306;2022-12-18T11:25:26;102434.53;;;16.25;40.95
73455;BME280;61690;51.824;6.306;2022-12-18T11:28:02;102429.28;;;16.25;41.07
73455;BME280;61690;51.824;6.306;2022-12-18T11:30:36;102434.63;;;16.22;41.08
73455;BME280;61690;51.824;6.306;2022-12-18T11:33:31;102437.38;;;16.19;41.19
73455;BME280;61690;51.824;6.306;2022-12-18T11:36:00;102431.38;;;16.14;41.34
73455;BME280;61690;51.824;6.306;2022-12-18T11:38:31;102435.91;;;16.08;41.21
73455;BME280;61690;51.824;6.306;2022-12-18T11:44:25;102425.75;;;15.98;41.34
73455;BME280;61690;51.824;6.306;2022-12-18T11:46:56;102420.63;;;15.93;41.56
73455;BME280;61690;51.824;6.306;2022-12-18T11:49:29;102409.41;;;15.88;41.74
73455;BME280;61690;51.824;6.306;2022-12-18T11:52:17;102407.72;;;15.85;41.52
73455;BME280;61690;51.824;6.306;2022-12-18T11:54:43;102409.69;;;15.79;41.84
73455;BME280;61690;51.824;6.306;2022-12-18T11:57:19;102408.91;;;15.75;41.83
73455;BME280;61690;51.824;6.306;2022-12-18T12:00:16;102410.78;;;15.70;42.07
73455;BME280;61690;51.824;6.306;2022-12-18T12:03:10;102407.44;;;15.65;42.02
73455;BME280;61690;51.824;6.306;2022-12-18T12:08:20;102401.38;;;15.63;41.85
73455;BME280;61690;51.824;6.306;2022-12-18T12:15:58;102378.28;;;15.76;41.74
73455;BME280;61690;51.824;6.306;2022-12-18T12:32:29;102359.78;;;16.08;40.76
73455;BME280;61690;51.824;6.306;2022-12-18T12:38:05;102352.84;;;16.07;41.16
73455;BME280;61690;51.824;6.306;2022-12-18T12:40:35;102359.00;;;16.05;41.01
73455;BME280;61690;51.824;6.306;2022-12-18T12:43:19;102357.34;;;16.02;40.95
73455;BME280;61690;51.824;6.306;2022-12-18T12:48:28;102361.16;;;15.94;41.20
73455;BME280;61690;51.824;6.306;2022-12-18T12:50:57;102342.91;;;15.89;41.56
73455;BME280;61690;51.824;6.306;2022-12-18T12:53:29;102337.75;;;15.86;41.24
73455;BME280;61690;51.824;6.306;2022-12-18T12:55:56;102332.59;;;15.83;41.28
73455;BME280;61690;51.824;6.306;2022-12-18T12:58:41;102331.81;;;15.79;41.41
73455;BME280;61690;51.824;6.306;2022-12-18T13:01:41;102319.66;;;15.77;41.69
73455;BME280;61690;51.824;6.306;2022-12-18T13:07:05;102315.34;;;15.74;41.64
73455;BME280;61690;51.824;6.306;2022-12-18T13:09:32;102311.53;;;15.86;41.33
73455;BME280;61690;51.824;6.306;2022-12-18T13:12:03;102309.41;;;15.97;40.98
73455;BME280;61690;51.824;6.306;2022-12-18T13:14:48;102312.44;;;16.12;40.91
73455;BME280;61690;51.824;6.306;2022-12-18T13:17:28;102306.06;;;16.20;40.63
73455;BME280;61690;51.824;6.306;2022-12-18T13:24:59;102287.31;;;16.31;40.33
73455;BME280;61690;51.824;6.306;2022-12-18T13:31:13;102278.72;;;16.26;40.32
73455;BME280;61690;51.824;6.306;2022-12-18T13:38:20;102262.38;;;16.18;40.78
73455;BME280;61690;51.824;6.306;2022-12-18T13:45:48;102269.78;;;16.05;40.77
73455;BME280;61690;51.824;6.306;2022-12-18T13:48:20;102264.69;;;16.00;41.08
73455;BME280;61690;51.824;6.306;2022-12-18T13:50:49;102267.41;;;15.97;41.09
73455;BME280;61690;51.824;6.306;2022-12-18T13:53:24;102262.31;;;15.93;41.22
73455;BME280;61690;51.824;6.306;2022-12-18T13:55:50;102258.94;;;15.89;41.22
73455;BME280;61690;51.824;6.306;2022-12-18T13:58:16;102253.81;;;15.86;41.20
73455;BME280;61690;51.824;6.306;2022-12-18T14:00:42;102249.53;;;15.82;41.40
73455;BME280;61690;51.824;6.306;2022-12-18T14:03:25;102248.84;;;15.77;41.45
73455;BME280;61690;51.824;6.306;2022-12-18T14:06:03;102248.00;;;15.76;41.29
73455;BME280;61690;51.824;6.306;2022-12-18T14:08:36;102246.16;;;15.78;41.38
73455;BME280;61690;51.824;6.306;2022-12-18T14:11:03;102246.91;;;15.82;41.27
73455;BME280;61690;51.824;6.306;2022-12-18T14:13:41;102240.47;;;15.92;40.97
73455;BME280;61690;51.824;6.306;2022-12-18T14:16:07;102244.66;;;15.98;40.76
73455;BME280;61690;51.824;6.306;2022-12-18T14:18:53;102241.78;;;16.05;40.90
73455;BME280;61690;51.824;6.306;2022-12-18T14:21:26;102243.34;;;16.11;40.75
73455;BME280;61690;51.824;6.306;2022-12-18T14:24:18;102240.47;;;16.19;40.62
73455;BME280;61690;51.824;6.306;2022-12-18T14:26:44;102235.22;;;16.19;40.68
73455;BME280;61690;51.824;6.306;2022-12-18T14:29:26;102231.66;;;16.20;40.51
73455;BME280;61690;51.824;6.306;2022-12-18T14:34:35;102227.44;;;16.16;40.59